sensor_id;sensor_type;location;lat;lon;timestamp;P1;durP1;ratioP1;P2;durP2;ratioP2
62863;SDS011;48954;59.950;11.014;2023-09-18T01:58:49;1.90;;;1.10;;
62863;SDS011;48954;59.950;11.014;2023-09-18T02:02:08;1.90;;;1.20;;
62863;SDS011;48954;59.950;11.014;2023-09-18T02:22:19;1.50;;;0.80;;
62863;SDS011;48954;59.950;11.014;2023-09-18T05:24:08;2.20;;;1.00;;
62863;SDS011;48954;59.950;11.014;2023-09-18T05:26:48;2.70;;;1.30;;
62863;SDS011;48954;59.950;11.014;2023-09-18T05:29:25;2.30;;;1.40;;
62863;SDS011;48954;59.950;11.014;2023-09-18T05:32:05;2.00;;;0.90;;
62863;SDS011;48954;59.950;11.014;2023-09-18T05:34:48;2.80;;;1.10;;
62863;SDS011;48954;59.950;11.014;2023-09-18T05:37:31;2.10;;;1.10;;
62863;SDS011;48954;59.950;11.014;2023-09-18T05:40:14;2.80;;;1.20;;
62863;SDS011;48954;59.950;11.014;2023-09-18T05:42:56;2.30;;;1.10;;
62863;SDS011;48954;59.950;11.014;2023-09-18T05:45:36;2.00;;;1.10;;
62863;SDS011;48954;59.950;11.014;2023-09-18T05:48:20;1.80;;;1.00;;
62863;SDS011;48954;59.950;11.014;2023-09-18T05:51:11;2.90;;;1.20;;
62863;SDS011;48954;59.950;11.014;2023-09-18T06:02:38;3.40;;;1.60;;
62863;SDS011;48954;59.950;11.014;2023-09-18T06:05:20;3.20;;;1.80;;
62863;SDS011;48954;59.950;11.014;2023-09-18T06:08:04;2.60;;;1.20;;
62863;SDS011;48954;59.950;11.014;2023-09-18T06:11:12;2.40;;;1.40;;
62863;SDS011;48954;59.950;11.014;2023-09-18T06:13:59;3.70;;;1.40;;
62863;SDS011;48954;59.950;11.014;2023-09-18T06:38:56;3.90;;;1.80;;
62863;SDS011;48954;59.950;11.014;2023-09-18T06:42:11;3.40;;;1.50;;
62863;SDS011;48954;59.950;11.014;2023-09-18T06:45:03;4.10;;;1.80;;
62863;SDS011;48954;59.950;11.014;2023-09-18T06:47:52;3.80;;;1.80;;
62863;SDS011;48954;59.950;11.014;2023-09-18T06:50:48;4.20;;;2.30;;
62863;SDS011;48954;59.950;11.014;2023-09-18T06:53:29;3.70;;;2.00;;
62863;SDS011;48954;59.950;11.014;2023-09-18T06:56:10;6.40;;;2.10;;
62863;SDS011;48954;59.950;11.014;2023-09-18T06:58:52;4.00;;;1.70;;
62863;SDS011;48954;59.950;11.014;2023-09-18T07:01:32;3.20;;;1.80;;
62863;SDS011;48954;59.950;11.014;2023-09-18T07:04:20;7.00;;;2.40;;
62863;SDS011;48954;59.950;11.014;2023-09-18T07:10:08;5.20;;;2.20;;
62863;SDS011;48954;59.950;11.014;2023-09-18T07:13:30;4.30;;;2.00;;
62863;SDS011;48954;59.950;11.014;2023-09-18T07:16:10;4.20;;;2.40;;
62863;SDS011;48954;59.950;11.014;2023-09-18T07:18:54;4.40;;;2.80;;
62863;SDS011;48954;59.950;11.014;2023-09-18T07:24:24;4.60;;;2.60;;
62863;SDS011;48954;59.950;11.014;2023-09-18T07:27:05;4.10;;;2.80;;
62863;SDS011;48954;59.950;11.014;2023-09-18T07:29:47;4.90;;;2.60;;
62863;SDS011;48954;59.950;11.014;2023-09-18T07:32:28;6.70;;;3.00;;
62863;SDS011;48954;59.950;11.014;2023-09-18T07:35:09;5.20;;;3.10;;
62863;SDS011;48954;59.950;11.014;2023-09-18T07:37:50;5.00;;;3.00;;
62863;SDS011;48954;59.950;11.014;2023-09-18T07:40:31;5.20;;;3.10;;
62863;SDS011;48954;59.950;11.014;2023-09-18T07:46:41;5.80;;;3.10;;
62863;SDS011;48954;59.950;11.014;2023-09-18T07:49:51;6.10;;;3.10;;
62863;SDS011;48954;59.950;11.014;2023-09-18T07:52:51;5.90;;;3.20;;
62863;SDS011;48954;59.950;11.014;2023-09-18T07:55:40;6.40;;;3.30;;
62863;SDS011;48954;59.950;11.014;2023-09-18T07:58:41;4.90;;;2.90;;
62863;SDS011;48954;59.950;11.014;2023-09-18T08:01:22;11.10;;;3.70;;
62863;SDS011;48954;59.950;11.014;2023-09-18T08:04:03;20.90;;;7.30;;
62863;SDS011;48954;59.950;11.014;2023-09-18T08:06:43;7.40;;;4.30;;
62863;SDS011;48954;59.950;11.014;2023-09-18T08:09:24;7.40;;;3.50;;
62863;SDS011;48954;59.950;11.014;2023-09-18T08:15:00;7.40;;;4.10;;
62863;SDS011;48954;59.950;11.014;2023-09-18T08:18:04;8.40;;;4.30;;
62863;SDS011;48954;59.950;11.014;2023-09-18T08:29:51;7.90;;;4.10;;
62863;SDS011;48954;59.950;11.014;2023-09-18T08:36:11;9.70;;;5.20;;
62863;SDS011;48954;59.950;11.014;2023-09-18T08:39:34;7.70;;;4.10;;
62863;SDS011;48954;59.950;11.014;2023-09-18T08:44:57;8.40;;;4.30;;
62863;SDS011;48954;59.950;11.014;2023-09-18T08:47:58;7.90;;;4.30;;
62863;SDS011;48954;59.950;11.014;2023-09-18T08:50:41;11.40;;;5.30;;
62863;SDS011;48954;59.950;11.014;2023-09-18T08:53:24;7.30;;;4.70;;
62863;SDS011;48954;59.950;11.014;2023-09-18T09:02:56;10.40;;;5.60;;
62863;SDS011;48954;59.950;11.014;2023-09-18T09:05:58;10.80;;;5.10;;
62863;SDS011;48954;59.950;11.014;2023-09-18T09:09:04;13.20;;;5.60;;
62863;SDS011;48954;59.950;11.014;2023-09-18T09:12:06;10.90;;;5.10;;
62863;SDS011;48954;59.950;11.014;2023-09-18T09:15:04;9.10;;;4.50;;
62863;SDS011;48954;59.950;11.014;2023-09-18T09:29:35;12.10;;;6.00;;
62863;SDS011;48954;59.950;11.014;2023-09-18T09:32:49;14.10;;;6.20;;
62863;SDS011;48954;59.950;11.014;2023-09-18T09:35:55;11.90;;;5.70;;
62863;SDS011;48954;59.950;11.014;2023-09-18T09:39:02;19.20;;;7.40;;
62863;SDS011;48954;59.950;11.014;2023-09-18T09:54:00;14.60;;;6.30;;
62863;SDS011;48954;59.950;11.014;2023-09-18T10:14:17;15.20;;;6.20;;
62863;SDS011;48954;59.950;11.014;2023-09-18T10:31:35;12.50;;;5.40;;
62863;SDS011;48954;59.950;11.014;2023-09-18T10:37:42;11.10;;;5.30;;
62863;SDS011;48954;59.950;11.014;2023-09-18T10:40:38;14.90;;;5.80;;
62863;SDS011;48954;59.950;11.014;2023-09-18T10:49:14;15.90;;;4.70;;
62863;SDS011;48954;59.950;11.014;2023-09-18T11:28:28;11.20;;;5.20;;
62863;SDS011;48954;59.950;11.014;2023-09-18T11:35:18;11.10;;;5.80;;
62863;SDS011;48954;59.950;11.014;2023-09-18T11:39:02;9.50;;;4.60;;
62863;SDS011;48954;59.950;11.014;2023-09-18T11:42:12;13.00;;;4.50;;
62863;SDS011;48954;59.950;11.014;2023-09-18T13:09:21;6.00;;;3.20;;
62863;SDS011;48954;59.950;11.014;2023-09-18T13:12:21;6.50;;;3.30;;
62863;SDS011;48954;59.950;11.014;2023-09-18T13:21:10;5.50;;;3.90;;
62863;SDS011;48954;59.950;11.014;2023-09-18T13:25:08;6.80;;;3.10;;
62863;SDS011;48954;59.950;11.014;2023-09-18T13:28:09;5.50;;;3.40;;
62863;SDS011;48954;59.950;11.014;2023-09-18T13:34:00;9.90;;;3.60;;
62863;SDS011;48954;59.950;11.014;2023-09-18T13:37:00;5.40;;;3.40;;
62863;SDS011;48954;59.950;11.014;2023-09-18T13:39:44;6.30;;;3.60;;
62863;SDS011;48954;59.950;11.014;2023-09-18T13:48:18;5.80;;;3.40;;
62863;SDS011;48954;59.950;11.014;2023-09-18T13:51:27;8.40;;;2.60;;
62863;SDS011;48954;59.950;11.014;2023-09-18T13:54:06;6.00;;;3.10;;
62863;SDS011;48954;59.950;11.014;2023-09-18T14:12:09;6.40;;;3.30;;
62863;SDS011;48954;59.950;11.014;2023-09-18T14:15:06;7.10;;;3.00;;
62863;SDS011;48954;59.950;11.014;2023-09-18T14:18:24;4.10;;;2.40;;
62863;SDS011;48954;59.950;11.014;2023-09-18T14:25:03;6.10;;;3.10;;
62863;SDS011;48954;59.950;11.014;2023-09-18T14:27:50;4.40;;;2.90;;
62863;SDS011;48954;59.950;11.014;2023-09-18T14:37:17;5.80;;;2.80;;
62863;SDS011;48954;59.950;11.014;2023-09-18T14:40:45;4.00;;;2.70;;
62863;SDS011;48954;59.950;11.014;2023-09-18T16:20:07;7.20;;;4.10;;
62863;SDS011;48954;59.950;11.014;2023-09-18T16:31:59;8.90;;;4.40;;
62863;SDS011;48954;59.950;11.014;2023-09-18T16:34:49;6.40;;;3.90;;
62863;SDS011;48954;59.950;11.014;2023-09-18T16:38:14;7.20;;;4.20;;
62863;SDS011;48954;59.950;11.014;2023-09-18T16:41:12;8.00;;;4.30;;
62863;SDS011;48954;59.950;11.014;2023-09-18T16:43:58;7.80;;;4.60;;
62863;SDS011;48954;59.950;11.014;2023-09-18T16:46:39;7.40;;;4.00;;
62863;SDS011;48954;59.950;11.014;2023-09-18T16:49:14;6.30;;;4.70;;
62863;SDS011;48954;59.950;11.014;2023-09-18T16:52:02;7.30;;;4.40;;
62863;SDS011;48954;59.950;11.014;2023-09-18T16:54:44;8.70;;;4.50;;
62863;SDS011;48954;59.950;11.014;2023-09-18T17:00:32;7.40;;;4.60;;
62863;SDS011;48954;59.950;11.014;2023-09-18T17:03:18;7.70;;;5.30;;
62863;SDS011;48954;59.950;11.014;2023-09-18T17:08:48;9.30;;;4.90;;
62863;SDS011;48954;59.950;11.014;2023-09-18T17:11:58;7.10;;;4.60;;
62863;SDS011;48954;59.950;11.014;2023-09-18T17:14:52;6.90;;;4.10;;
62863;SDS011;48954;59.950;11.014;2023-09-18T17:17:34;5.70;;;4.00;;
62863;SDS011;48954;59.950;11.014;2023-09-18T17:20:21;8.50;;;4.70;;
62863;SDS011;48954;59.950;11.014;2023-09-18T17:29:45;8.70;;;5.20;;
62863;SDS011;48954;59.950;11.014;2023-09-18T17:32:30;8.70;;;4.80;;
62863;SDS011;48954;59.950;11.014;2023-09-18T17:35:10;8.80;;;5.80;;
62863;SDS011;48954;59.950;11.014;2023-09-18T17:40:44;7.50;;;4.90;;
62863;SDS011;48954;59.950;11.014;2023-09-18T17:43:20;10.00;;;5.10;;
62863;SDS011;48954;59.950;11.014;2023-09-18T17:46:21;7.60;;;4.50;;
62863;SDS011;48954;59.950;11.014;2023-09-18T17:52:57;7.10;;;4.70;;
62863;SDS011;48954;59.950;11.014;2023-09-18T17:56:20;8.70;;;4.60;;
62863;SDS011;48954;59.950;11.014;2023-09-18T17:59:13;5.50;;;3.60;;
62863;SDS011;48954;59.950;11.014;2023-09-18T18:30:20;5.10;;;3.40;;
62863;SDS011;48954;59.950;11.014;2023-09-18T18:33:13;6.00;;;4.20;;
62863;SDS011;48954;59.950;11.014;2023-09-18T18:36:03;4.90;;;3.30;;
62863;SDS011;48954;59.950;11.014;2023-09-18T20:46:12;4.50;;;2.70;;
62863;SDS011;48954;59.950;11.014;2023-09-18T20:49:35;4.70;;;2.70;;
62863;SDS011;48954;59.950;11.014;2023-09-18T20:58:41;4.60;;;3.30;;
62863;SDS011;48954;59.950;11.014;2023-09-18T22:33:46;21.00;;;10.60;;
62863;SDS011;48954;59.950;11.014;2023-09-18T22:55:36;18.00;;;10.60;;
62863;SDS011;48954;59.950;11.014;2023-09-18T23:01:21;17.20;;;8.90;;
62863;SDS011;48954;59.950;11.014;2023-09-18T23:04:04;16.90;;;9.50;;
62863;SDS011;48954;59.950;11.014;2023-09-18T23:07:04;18.50;;;9.10;;
62863;SDS011;48954;59.950;11.014;2023-09-18T23:09:48;15.30;;;8.80;;
62863;SDS011;48954;59.950;11.014;2023-09-18T23:12:30;17.50;;;9.30;;
62863;SDS011;48954;59.950;11.014;2023-09-18T23:15:17;20.00;;;9.60;;
62863;SDS011;48954;59.950;11.014;2023-09-18T23:21:05;16.10;;;8.90;;
62863;SDS011;48954;59.950;11.014;2023-09-18T23:29:42;22.70;;;10.60;;
62863;SDS011;48954;59.950;11.014;2023-09-18T23:32:41;17.80;;;9.60;;
62863;SDS011;48954;59.950;11.014;2023-09-18T23:35:22;23.70;;;10.40;;
62863;SDS011;48954;59.950;11.014;2023-09-18T23:38:04;16.70;;;10.00;;
62863;SDS011;48954;59.950;11.014;2023-09-18T23:40:47;20.60;;;10.20;;
62863;SDS011;48954;59.950;11.014;2023-09-18T23:43:14;22.00;;;10.00;;
62863;SDS011;48954;59.950;11.014;2023-09-18T23:45:50;16.10;;;9.70;;
62863;SDS011;48954;59.950;11.014;2023-09-18T23:48:18;18.30;;;9.90;;
62863;SDS011;48954;59.950;11.014;2023-09-18T23:50:47;19.00;;;9.70;;
62863;SDS011;48954;59.950;11.014;2023-09-18T23:53:16;14.80;;;8.90;;
62863;SDS011;48954;59.950;11.014;2023-09-18T23:55:58;17.70;;;10.10;;
62863;SDS011;48954;59.950;11.014;2023-09-18T23:58:34;18.90;;;9.50;;
